sensor_id;sensor_type;location;lat;lon;timestamp;P1;durP1;ratioP1;P2;durP2;ratioP2
78148;SDS011;67396;42.664;23.382;2023-12-20T00:01:04;34.55;;;19.35;;
78148;SDS011;67396;42.664;23.382;2023-12-20T00:03:30;42.97;;;23.05;;
78148;SDS011;67396;42.664;23.382;2023-12-20T00:05:55;32.55;;;15.75;;
78148;SDS011;67396;42.664;23.382;2023-12-20T00:08:21;48.92;;;22.67;;
78148;SDS011;67396;42.664;23.382;2023-12-20T00:10:47;42.50;;;18.85;;
78148;SDS011;67396;42.664;23.382;2023-12-20T00:13:12;33.90;;;17.17;;
78148;SDS011;67396;42.664;23.382;2023-12-20T00:15:38;43.80;;;19.75;;
78148;SDS011;67396;42.664;23.382;2023-12-20T00:18:03;27.98;;;14.25;;
78148;SDS011;67396;42.664;23.382;2023-12-20T00:20:29;30.48;;;14.00;;
78148;SDS011;67396;42.664;23.382;2023-12-20T00:22:56;33.35;;;16.65;;
78148;SDS011;67396;42.664;23.382;2023-12-20T00:25:23;25.27;;;12.10;;
78148;SDS011;67396;42.664;23.382;2023-12-20T00:27:48;21.27;;;11.65;;
78148;SDS011;67396;42.664;23.382;2023-12-20T00:30:14;25.58;;;12.50;;
78148;SDS011;67396;42.664;23.382;2023-12-20T00:32:39;28.45;;;15.10;;
78148;SDS011;67396;42.664;23.382;2023-12-20T00:35:11;28.63;;;14.05;;
78148;SDS011;67396;42.664;23.382;2023-12-20T00:37:37;31.88;;;16.95;;
78148;SDS011;67396;42.664;23.382;2023-12-20T00:40:03;36.33;;;17.15;;
78148;SDS011;67396;42.664;23.382;2023-12-20T00:42:28;35.85;;;16.85;;
78148;SDS011;67396;42.664;23.382;2023-12-20T00:44:54;32.63;;;15.18;;
78148;SDS011;67396;42.664;23.382;2023-12-20T00:47:20;31.63;;;15.77;;
78148;SDS011;67396;42.664;23.382;2023-12-20T00:49:45;30.63;;;15.55;;
78148;SDS011;67396;42.664;23.382;2023-12-20T00:52:11;31.17;;;16.30;;
78148;SDS011;67396;42.664;23.382;2023-12-20T00:54:36;31.83;;;16.63;;
78148;SDS011;67396;42.664;23.382;2023-12-20T00:57:02;32.72;;;16.83;;
78148;SDS011;67396;42.664;23.382;2023-12-20T00:59:33;32.20;;;16.80;;
78148;SDS011;67396;42.664;23.382;2023-12-20T01:01:59;38.25;;;19.98;;
78148;SDS011;67396;42.664;23.382;2023-12-20T01:04:24;45.03;;;24.20;;
78148;SDS011;67396;42.664;23.382;2023-12-20T01:06:50;52.65;;;26.40;;
78148;SDS011;67396;42.664;23.382;2023-12-20T01:09:16;44.97;;;23.05;;
78148;SDS011;67396;42.664;23.382;2023-12-20T01:11:41;58.63;;;27.85;;
78148;SDS011;67396;42.664;23.382;2023-12-20T01:14:07;51.25;;;24.60;;
78148;SDS011;67396;42.664;23.382;2023-12-20T01:18:58;89.03;;;46.65;;
78148;SDS011;67396;42.664;23.382;2023-12-20T01:21:24;112.57;;;51.95;;
78148;SDS011;67396;42.664;23.382;2023-12-20T01:23:49;129.73;;;63.30;;
78148;SDS011;67396;42.664;23.382;2023-12-20T01:26:14;121.47;;;59.92;;
78148;SDS011;67396;42.664;23.382;2023-12-20T01:28:40;130.95;;;62.15;;
78148;SDS011;67396;42.664;23.382;2023-12-20T01:33:33;131.88;;;61.15;;
78148;SDS011;67396;42.664;23.382;2023-12-20T01:35:58;125.45;;;59.75;;
78148;SDS011;67396;42.664;23.382;2023-12-20T01:38:24;124.70;;;57.30;;
78148;SDS011;67396;42.664;23.382;2023-12-20T01:43:15;118.72;;;58.90;;
78148;SDS011;67396;42.664;23.382;2023-12-20T01:48:07;110.47;;;51.67;;
78148;SDS011;67396;42.664;23.382;2023-12-20T01:50:35;118.93;;;57.03;;
78148;SDS011;67396;42.664;23.382;2023-12-20T01:53:02;126.25;;;64.03;;
78148;SDS011;67396;42.664;23.382;2023-12-20T01:55:31;121.93;;;58.95;;
78148;SDS011;67396;42.664;23.382;2023-12-20T01:57:58;129.55;;;62.67;;
78148;SDS011;67396;42.664;23.382;2023-12-20T02:00:25;133.48;;;63.17;;
78148;SDS011;67396;42.664;23.382;2023-12-20T02:02:53;133.48;;;68.78;;
78148;SDS011;67396;42.664;23.382;2023-12-20T02:05:22;131.82;;;60.17;;
78148;SDS011;67396;42.664;23.382;2023-12-20T02:07:50;127.40;;;62.60;;
78148;SDS011;67396;42.664;23.382;2023-12-20T02:12:41;105.65;;;48.80;;
78148;SDS011;67396;42.664;23.382;2023-12-20T02:20:09;82.20;;;43.45;;
78148;SDS011;67396;42.664;23.382;2023-12-20T02:22:34;96.53;;;47.80;;
78148;SDS011;67396;42.664;23.382;2023-12-20T02:27:25;91.88;;;44.55;;
78148;SDS011;67396;42.664;23.382;2023-12-20T02:29:53;98.13;;;47.72;;
78148;SDS011;67396;42.664;23.382;2023-12-20T02:32:18;86.40;;;44.08;;
78148;SDS011;67396;42.664;23.382;2023-12-20T02:34:46;99.30;;;48.58;;
78148;SDS011;67396;42.664;23.382;2023-12-20T02:37:12;130.65;;;58.80;;
78148;SDS011;67396;42.664;23.382;2023-12-20T02:42:03;86.63;;;41.72;;
78148;SDS011;67396;42.664;23.382;2023-12-20T02:44:29;76.63;;;33.95;;
78148;SDS011;67396;42.664;23.382;2023-12-20T02:49:20;59.47;;;29.02;;
78148;SDS011;67396;42.664;23.382;2023-12-20T02:54:11;40.28;;;19.42;;
78148;SDS011;67396;42.664;23.382;2023-12-20T02:59:03;48.92;;;21.48;;
78148;SDS011;67396;42.664;23.382;2023-12-20T03:01:33;56.10;;;26.70;;
78148;SDS011;67396;42.664;23.382;2023-12-20T03:04:00;56.58;;;23.08;;
78148;SDS011;67396;42.664;23.382;2023-12-20T03:11:16;136.93;;;54.58;;
78148;SDS011;67396;42.664;23.382;2023-12-20T03:16:10;126.63;;;47.95;;
78148;SDS011;67396;42.664;23.382;2023-12-20T03:18:37;118.20;;;49.25;;
78148;SDS011;67396;42.664;23.382;2023-12-20T03:21:04;132.45;;;54.08;;
78148;SDS011;67396;42.664;23.382;2023-12-20T03:23:30;122.97;;;56.47;;
78148;SDS011;67396;42.664;23.382;2023-12-20T03:25:57;129.77;;;54.47;;
78148;SDS011;67396;42.664;23.382;2023-12-20T03:28:23;115.97;;;52.83;;
78148;SDS011;67396;42.664;23.382;2023-12-20T03:33:15;112.18;;;47.95;;
78148;SDS011;67396;42.664;23.382;2023-12-20T03:38:06;99.55;;;41.42;;
78148;SDS011;67396;42.664;23.382;2023-12-20T03:42:57;98.55;;;40.72;;
78148;SDS011;67396;42.664;23.382;2023-12-20T03:45:23;100.43;;;46.17;;
78148;SDS011;67396;42.664;23.382;2023-12-20T03:47:48;95.50;;;44.60;;
78148;SDS011;67396;42.664;23.382;2023-12-20T03:52:40;87.78;;;39.42;;
78148;SDS011;67396;42.664;23.382;2023-12-20T03:55:08;89.60;;;45.38;;
78148;SDS011;67396;42.664;23.382;2023-12-20T03:59:59;97.55;;;45.25;;
78148;SDS011;67396;42.664;23.382;2023-12-20T04:04:50;96.03;;;44.63;;
78148;SDS011;67396;42.664;23.382;2023-12-20T04:07:18;104.93;;;45.65;;
78148;SDS011;67396;42.664;23.382;2023-12-20T04:12:09;77.32;;;37.28;;
78148;SDS011;67396;42.664;23.382;2023-12-20T04:14:34;82.20;;;38.00;;
78148;SDS011;67396;42.664;23.382;2023-12-20T04:19:25;68.18;;;36.75;;
78148;SDS011;67396;42.664;23.382;2023-12-20T04:24:16;71.72;;;35.60;;
78148;SDS011;67396;42.664;23.382;2023-12-20T04:34:18;69.18;;;32.08;;
78148;SDS011;67396;42.664;23.382;2023-12-20T04:36:43;84.78;;;34.38;;
78148;SDS011;67396;42.664;23.382;2023-12-20T04:39:09;79.55;;;33.08;;
78148;SDS011;67396;42.664;23.382;2023-12-20T05:05:11;96.95;;;41.33;;
78148;SDS011;67396;42.664;23.382;2023-12-20T05:07:36;113.32;;;46.53;;
78148;SDS011;67396;42.664;23.382;2023-12-20T05:12:29;67.65;;;28.83;;
78148;SDS011;67396;42.664;23.382;2023-12-20T05:14:55;78.20;;;28.58;;
78148;SDS011;67396;42.664;23.382;2023-12-20T05:19:46;63.63;;;26.73;;
78148;SDS011;67396;42.664;23.382;2023-12-20T05:24:37;43.13;;;21.02;;
78148;SDS011;67396;42.664;23.382;2023-12-20T05:27:02;50.25;;;22.10;;
78148;SDS011;67396;42.664;23.382;2023-12-20T05:29:28;56.45;;;25.80;;
78148;SDS011;67396;42.664;23.382;2023-12-20T05:34:19;53.22;;;22.90;;
78148;SDS011;67396;42.664;23.382;2023-12-20T05:39:10;58.38;;;25.25;;
78148;SDS011;67396;42.664;23.382;2023-12-20T05:44:02;53.53;;;22.90;;
78148;SDS011;67396;42.664;23.382;2023-12-20T05:48:53;53.20;;;23.58;;
78148;SDS011;67396;42.664;23.382;2023-12-20T05:53:52;63.03;;;27.02;;
78148;SDS011;67396;42.664;23.382;2023-12-20T05:56:24;75.88;;;29.83;;
78148;SDS011;67396;42.664;23.382;2023-12-20T05:58:49;73.35;;;29.13;;
78148;SDS011;67396;42.664;23.382;2023-12-20T06:01:15;91.57;;;34.65;;
78148;SDS011;67396;42.664;23.382;2023-12-20T06:03:44;77.70;;;32.67;;
78148;SDS011;67396;42.664;23.382;2023-12-20T06:06:11;113.88;;;43.97;;
78148;SDS011;67396;42.664;23.382;2023-12-20T06:08:38;81.95;;;31.55;;
78148;SDS011;67396;42.664;23.382;2023-12-20T06:13:28;82.70;;;33.10;;
78148;SDS011;67396;42.664;23.382;2023-12-20T06:15:54;63.20;;;29.45;;
78148;SDS011;67396;42.664;23.382;2023-12-20T06:18:20;72.80;;;29.60;;
78148;SDS011;67396;42.664;23.382;2023-12-20T06:20:46;74.00;;;28.50;;
78148;SDS011;67396;42.664;23.382;2023-12-20T06:23:11;81.28;;;28.58;;
78148;SDS011;67396;42.664;23.382;2023-12-20T06:25:37;68.85;;;26.48;;
78148;SDS011;67396;42.664;23.382;2023-12-20T06:28:02;71.88;;;28.70;;
78148;SDS011;67396;42.664;23.382;2023-12-20T06:30:28;71.07;;;29.38;;
78148;SDS011;67396;42.664;23.382;2023-12-20T06:35:19;36.85;;;21.15;;
78148;SDS011;67396;42.664;23.382;2023-12-20T06:37:45;20.17;;;10.85;;
78148;SDS011;67396;42.664;23.382;2023-12-20T06:40:11;24.27;;;11.40;;
78148;SDS011;67396;42.664;23.382;2023-12-20T06:42:36;22.77;;;12.18;;
78148;SDS011;67396;42.664;23.382;2023-12-20T06:45:02;21.13;;;9.98;;
78148;SDS011;67396;42.664;23.382;2023-12-20T06:47:28;19.65;;;10.65;;
78148;SDS011;67396;42.664;23.382;2023-12-20T06:49:54;16.50;;;13.63;;
78148;SDS011;67396;42.664;23.382;2023-12-20T06:52:19;13.48;;;9.60;;
78148;SDS011;67396;42.664;23.382;2023-12-20T06:54:45;25.33;;;9.95;;
78148;SDS011;67396;42.664;23.382;2023-12-20T06:57:10;13.73;;;8.20;;
78148;SDS011;67396;42.664;23.382;2023-12-20T06:59:39;24.77;;;10.93;;
78148;SDS011;67396;42.664;23.382;2023-12-20T07:02:05;11.55;;;8.93;;
78148;SDS011;67396;42.664;23.382;2023-12-20T07:04:38;21.75;;;11.32;;
78148;SDS011;67396;42.664;23.382;2023-12-20T07:07:04;27.45;;;16.10;;
78148;SDS011;67396;42.664;23.382;2023-12-20T07:09:30;17.48;;;9.93;;
78148;SDS011;67396;42.664;23.382;2023-12-20T07:11:55;11.27;;;7.25;;
78148;SDS011;67396;42.664;23.382;2023-12-20T07:14:21;55.63;;;23.20;;
78148;SDS011;67396;42.664;23.382;2023-12-20T07:16:46;46.65;;;19.63;;
78148;SDS011;67396;42.664;23.382;2023-12-20T07:19:12;19.15;;;11.25;;
78148;SDS011;67396;42.664;23.382;2023-12-20T07:21:37;15.82;;;9.85;;
78148;SDS011;67396;42.664;23.382;2023-12-20T07:24:03;19.63;;;8.25;;
78148;SDS011;67396;42.664;23.382;2023-12-20T07:26:28;10.60;;;7.32;;
78148;SDS011;67396;42.664;23.382;2023-12-20T07:28:54;82.65;;;33.20;;
78148;SDS011;67396;42.664;23.382;2023-12-20T07:31:19;16.65;;;10.23;;
78148;SDS011;67396;42.664;23.382;2023-12-20T07:33:45;20.27;;;8.77;;
78148;SDS011;67396;42.664;23.382;2023-12-20T07:36:11;14.07;;;10.77;;
78148;SDS011;67396;42.664;23.382;2023-12-20T07:38:37;15.57;;;8.77;;
78148;SDS011;67396;42.664;23.382;2023-12-20T07:41:03;64.78;;;26.88;;
78148;SDS011;67396;42.664;23.382;2023-12-20T07:43:28;32.53;;;14.85;;
78148;SDS011;67396;42.664;23.382;2023-12-20T07:45:54;49.97;;;20.48;;
78148;SDS011;67396;42.664;23.382;2023-12-20T07:48:19;24.50;;;14.45;;
78148;SDS011;67396;42.664;23.382;2023-12-20T07:50:45;44.42;;;20.05;;
78148;SDS011;67396;42.664;23.382;2023-12-20T07:53:10;61.90;;;29.15;;
78148;SDS011;67396;42.664;23.382;2023-12-20T07:55:36;83.45;;;34.08;;
78148;SDS011;67396;42.664;23.382;2023-12-20T07:58:01;38.55;;;17.48;;
78148;SDS011;67396;42.664;23.382;2023-12-20T08:00:27;25.23;;;12.70;;
78148;SDS011;67396;42.664;23.382;2023-12-20T08:02:53;27.38;;;14.32;;
78148;SDS011;67396;42.664;23.382;2023-12-20T08:05:18;38.88;;;21.45;;
78148;SDS011;67396;42.664;23.382;2023-12-20T08:10:09;61.88;;;25.98;;
78148;SDS011;67396;42.664;23.382;2023-12-20T08:15:01;70.68;;;28.63;;
78148;SDS011;67396;42.664;23.382;2023-12-20T08:22:17;74.82;;;25.35;;
78148;SDS011;67396;42.664;23.382;2023-12-20T08:24:43;69.53;;;27.27;;
78148;SDS011;67396;42.664;23.382;2023-12-20T08:29:34;85.03;;;31.50;;
78148;SDS011;67396;42.664;23.382;2023-12-20T08:32:01;85.13;;;32.28;;
78148;SDS011;67396;42.664;23.382;2023-12-20T08:34:27;76.78;;;28.48;;
78148;SDS011;67396;42.664;23.382;2023-12-20T08:36:53;67.43;;;28.80;;
78148;SDS011;67396;42.664;23.382;2023-12-20T08:44:09;55.97;;;22.83;;
78148;SDS011;67396;42.664;23.382;2023-12-20T08:46:35;64.55;;;25.92;;
78148;SDS011;67396;42.664;23.382;2023-12-20T08:49:01;79.35;;;30.52;;
78148;SDS011;67396;42.664;23.382;2023-12-20T08:51:27;85.75;;;31.50;;
78148;SDS011;67396;42.664;23.382;2023-12-20T08:56:19;94.47;;;31.88;;
78148;SDS011;67396;42.664;23.382;2023-12-20T09:01:11;91.97;;;35.50;;
78148;SDS011;67396;42.664;23.382;2023-12-20T09:06:02;86.72;;;33.85;;
78148;SDS011;67396;42.664;23.382;2023-12-20T09:08:28;82.07;;;33.80;;
78148;SDS011;67396;42.664;23.382;2023-12-20T09:10:54;92.55;;;31.75;;
78148;SDS011;67396;42.664;23.382;2023-12-20T09:15:46;83.63;;;32.15;;
78148;SDS011;67396;42.664;23.382;2023-12-20T09:18:12;92.78;;;34.20;;
78148;SDS011;67396;42.664;23.382;2023-12-20T09:23:03;87.95;;;29.73;;
78148;SDS011;67396;42.664;23.382;2023-12-20T09:27:54;74.07;;;28.60;;
78148;SDS011;67396;42.664;23.382;2023-12-20T09:32:46;68.68;;;27.38;;
78148;SDS011;67396;42.664;23.382;2023-12-20T09:35:11;78.88;;;30.45;;
78148;SDS011;67396;42.664;23.382;2023-12-20T09:40:02;77.45;;;29.05;;
78148;SDS011;67396;42.664;23.382;2023-12-20T09:42:33;87.85;;;34.17;;
78148;SDS011;67396;42.664;23.382;2023-12-20T09:45:06;81.53;;;30.98;;
78148;SDS011;67396;42.664;23.382;2023-12-20T09:47:35;97.20;;;34.85;;
78148;SDS011;67396;42.664;23.382;2023-12-20T09:50:01;60.70;;;26.40;;
78148;SDS011;67396;42.664;23.382;2023-12-20T09:52:27;86.80;;;32.95;;
78148;SDS011;67396;42.664;23.382;2023-12-20T09:54:54;85.05;;;32.50;;
78148;SDS011;67396;42.664;23.382;2023-12-20T09:57:22;84.18;;;33.85;;
78148;SDS011;67396;42.664;23.382;2023-12-20T09:59:47;69.38;;;27.75;;
78148;SDS011;67396;42.664;23.382;2023-12-20T10:02:13;95.50;;;34.97;;
78148;SDS011;67396;42.664;23.382;2023-12-20T10:04:43;77.45;;;32.92;;
78148;SDS011;67396;42.664;23.382;2023-12-20T10:07:15;90.97;;;35.58;;
78148;SDS011;67396;42.664;23.382;2023-12-20T10:09:41;85.30;;;34.60;;
78148;SDS011;67396;42.664;23.382;2023-12-20T10:12:07;90.20;;;35.75;;
78148;SDS011;67396;42.664;23.382;2023-12-20T10:14:33;90.45;;;34.22;;
78148;SDS011;67396;42.664;23.382;2023-12-20T10:17:02;97.03;;;36.60;;
78148;SDS011;67396;42.664;23.382;2023-12-20T10:19:28;78.57;;;32.72;;
78148;SDS011;67396;42.664;23.382;2023-12-20T10:21:54;90.15;;;32.83;;
78148;SDS011;67396;42.664;23.382;2023-12-20T10:26:45;81.75;;;31.35;;
78148;SDS011;67396;42.664;23.382;2023-12-20T10:29:11;80.43;;;30.40;;
78148;SDS011;67396;42.664;23.382;2023-12-20T10:34:03;80.10;;;30.67;;
78148;SDS011;67396;42.664;23.382;2023-12-20T10:36:30;76.07;;;30.30;;
78148;SDS011;67396;42.664;23.382;2023-12-20T10:38:57;86.68;;;32.67;;
78148;SDS011;67396;42.664;23.382;2023-12-20T10:41:26;78.28;;;31.60;;
78148;SDS011;67396;42.664;23.382;2023-12-20T10:44:00;78.10;;;32.80;;
78148;SDS011;67396;42.664;23.382;2023-12-20T10:46:32;91.40;;;32.78;;
78148;SDS011;67396;42.664;23.382;2023-12-20T10:48:59;90.20;;;34.05;;
78148;SDS011;67396;42.664;23.382;2023-12-20T10:51:27;84.90;;;32.55;;
78148;SDS011;67396;42.664;23.382;2023-12-20T10:53:54;72.65;;;29.30;;
78148;SDS011;67396;42.664;23.382;2023-12-20T10:56:20;85.13;;;33.17;;
78148;SDS011;67396;42.664;23.382;2023-12-20T10:58:49;76.63;;;32.40;;
78148;SDS011;67396;42.664;23.382;2023-12-20T11:01:16;82.72;;;32.88;;
78148;SDS011;67396;42.664;23.382;2023-12-20T11:03:50;53.35;;;24.25;;
78148;SDS011;67396;42.664;23.382;2023-12-20T11:09:17;87.05;;;32.47;;
78148;SDS011;67396;42.664;23.382;2023-12-20T11:14:23;79.03;;;29.58;;
78148;SDS011;67396;42.664;23.382;2023-12-20T11:17:09;75.57;;;30.00;;
78148;SDS011;67396;42.664;23.382;2023-12-20T11:22:21;62.60;;;26.27;;
78148;SDS011;67396;42.664;23.382;2023-12-20T11:24:47;74.85;;;29.80;;
78148;SDS011;67396;42.664;23.382;2023-12-20T11:27:14;72.30;;;28.55;;
78148;SDS011;67396;42.664;23.382;2023-12-20T11:29:40;77.03;;;33.63;;
78148;SDS011;67396;42.664;23.382;2023-12-20T11:34:54;87.85;;;33.45;;
78148;SDS011;67396;42.664;23.382;2023-12-20T11:37:40;72.53;;;25.98;;
78148;SDS011;67396;42.664;23.382;2023-12-20T11:40:08;72.25;;;30.25;;
78148;SDS011;67396;42.664;23.382;2023-12-20T11:42:48;77.68;;;32.75;;
78148;SDS011;67396;42.664;23.382;2023-12-20T11:45:15;88.72;;;33.25;;
78148;SDS011;67396;42.664;23.382;2023-12-20T11:47:46;97.00;;;34.67;;
78148;SDS011;67396;42.664;23.382;2023-12-20T11:50:12;78.68;;;31.52;;
78148;SDS011;67396;42.664;23.382;2023-12-20T11:52:39;84.28;;;35.33;;
78148;SDS011;67396;42.664;23.382;2023-12-20T11:55:05;85.88;;;34.50;;
78148;SDS011;67396;42.664;23.382;2023-12-20T11:57:31;94.45;;;37.15;;
78148;SDS011;67396;42.664;23.382;2023-12-20T11:59:58;93.13;;;35.45;;
78148;SDS011;67396;42.664;23.382;2023-12-20T12:02:24;86.30;;;31.45;;
78148;SDS011;67396;42.664;23.382;2023-12-20T12:04:50;76.85;;;32.90;;
78148;SDS011;67396;42.664;23.382;2023-12-20T12:07:16;75.97;;;30.15;;
78148;SDS011;67396;42.664;23.382;2023-12-20T12:09:42;77.35;;;32.05;;
78148;SDS011;67396;42.664;23.382;2023-12-20T12:12:08;44.63;;;19.50;;
78148;SDS011;67396;42.664;23.382;2023-12-20T12:14:35;80.00;;;32.45;;
78148;SDS011;67396;42.664;23.382;2023-12-20T12:17:02;68.57;;;29.55;;
78148;SDS011;67396;42.664;23.382;2023-12-20T12:19:29;91.30;;;34.85;;
78148;SDS011;67396;42.664;23.382;2023-12-20T12:24:41;84.55;;;29.25;;
78148;SDS011;67396;42.664;23.382;2023-12-20T12:27:11;90.35;;;31.55;;
78148;SDS011;67396;42.664;23.382;2023-12-20T12:29:38;69.55;;;27.15;;
78148;SDS011;67396;42.664;23.382;2023-12-20T12:32:05;67.57;;;24.25;;
78148;SDS011;67396;42.664;23.382;2023-12-20T12:34:34;79.55;;;30.20;;
78148;SDS011;67396;42.664;23.382;2023-12-20T12:37:00;75.97;;;29.13;;
78148;SDS011;67396;42.664;23.382;2023-12-20T12:39:26;71.55;;;29.70;;
78148;SDS011;67396;42.664;23.382;2023-12-20T12:41:51;79.50;;;30.90;;
78148;SDS011;67396;42.664;23.382;2023-12-20T12:44:17;78.00;;;31.83;;
78148;SDS011;67396;42.664;23.382;2023-12-20T12:46:46;80.63;;;32.40;;
78148;SDS011;67396;42.664;23.382;2023-12-20T12:49:11;83.85;;;30.70;;
78148;SDS011;67396;42.664;23.382;2023-12-20T12:51:37;81.30;;;32.90;;
78148;SDS011;67396;42.664;23.382;2023-12-20T12:54:03;74.22;;;29.33;;
78148;SDS011;67396;42.664;23.382;2023-12-20T12:56:29;75.10;;;30.92;;
78148;SDS011;67396;42.664;23.382;2023-12-20T12:58:55;81.03;;;33.72;;
78148;SDS011;67396;42.664;23.382;2023-12-20T13:01:20;91.75;;;34.60;;
78148;SDS011;67396;42.664;23.382;2023-12-20T13:03:46;93.40;;;37.00;;
78148;SDS011;67396;42.664;23.382;2023-12-20T13:06:12;96.38;;;39.00;;
78148;SDS011;67396;42.664;23.382;2023-12-20T13:08:38;88.88;;;34.65;;
78148;SDS011;67396;42.664;23.382;2023-12-20T13:11:03;99.28;;;38.05;;
78148;SDS011;67396;42.664;23.382;2023-12-20T13:13:29;111.63;;;41.85;;
78148;SDS011;67396;42.664;23.382;2023-12-20T13:15:56;97.72;;;37.28;;
78148;SDS011;67396;42.664;23.382;2023-12-20T13:18:22;46.50;;;21.25;;
78148;SDS011;67396;42.664;23.382;2023-12-20T13:20:48;95.60;;;36.22;;
78148;SDS011;67396;42.664;23.382;2023-12-20T13:23:13;96.30;;;34.65;;
78148;SDS011;67396;42.664;23.382;2023-12-20T13:25:40;88.72;;;35.67;;
78148;SDS011;67396;42.664;23.382;2023-12-20T13:28:06;84.10;;;36.17;;
78148;SDS011;67396;42.664;23.382;2023-12-20T13:30:31;93.53;;;35.88;;
78148;SDS011;67396;42.664;23.382;2023-12-20T13:32:57;93.43;;;34.33;;
78148;SDS011;67396;42.664;23.382;2023-12-20T13:35:22;95.20;;;36.03;;
78148;SDS011;67396;42.664;23.382;2023-12-20T13:37:48;96.50;;;36.08;;
78148;SDS011;67396;42.664;23.382;2023-12-20T13:40:13;84.45;;;32.75;;
78148;SDS011;67396;42.664;23.382;2023-12-20T13:42:39;91.38;;;34.05;;
78148;SDS011;67396;42.664;23.382;2023-12-20T13:45:05;99.30;;;34.22;;
78148;SDS011;67396;42.664;23.382;2023-12-20T13:47:31;92.20;;;36.80;;
78148;SDS011;67396;42.664;23.382;2023-12-20T13:49:57;108.95;;;37.38;;
78148;SDS011;67396;42.664;23.382;2023-12-20T13:52:23;93.90;;;31.63;;
78148;SDS011;67396;42.664;23.382;2023-12-20T13:54:48;105.82;;;35.75;;
78148;SDS011;67396;42.664;23.382;2023-12-20T13:57:14;95.93;;;35.88;;
78148;SDS011;67396;42.664;23.382;2023-12-20T13:59:40;247.77;;;101.55;;
78148;SDS011;67396;42.664;23.382;2023-12-20T14:02:05;123.07;;;48.55;;
78148;SDS011;67396;42.664;23.382;2023-12-20T14:04:31;121.28;;;40.67;;
78148;SDS011;67396;42.664;23.382;2023-12-20T14:06:57;126.07;;;40.58;;
78148;SDS011;67396;42.664;23.382;2023-12-20T14:09:23;108.07;;;36.90;;
78148;SDS011;67396;42.664;23.382;2023-12-20T14:11:48;123.47;;;38.42;;
78148;SDS011;67396;42.664;23.382;2023-12-20T14:14:14;111.22;;;39.22;;
78148;SDS011;67396;42.664;23.382;2023-12-20T14:16:40;148.25;;;44.67;;
78148;SDS011;67396;42.664;23.382;2023-12-20T14:19:07;109.60;;;40.08;;
78148;SDS011;67396;42.664;23.382;2023-12-20T14:21:34;131.63;;;40.47;;
78148;SDS011;67396;42.664;23.382;2023-12-20T14:24:00;151.25;;;41.50;;
78148;SDS011;67396;42.664;23.382;2023-12-20T14:26:26;164.30;;;38.80;;
78148;SDS011;67396;42.664;23.382;2023-12-20T14:28:53;146.45;;;38.22;;
78148;SDS011;67396;42.664;23.382;2023-12-20T14:31:19;172.00;;;60.10;;
78148;SDS011;67396;42.664;23.382;2023-12-20T14:33:44;119.88;;;46.08;;
78148;SDS011;67396;42.664;23.382;2023-12-20T14:36:11;124.70;;;38.20;;
78148;SDS011;67396;42.664;23.382;2023-12-20T14:38:37;157.38;;;37.88;;
78148;SDS011;67396;42.664;23.382;2023-12-20T14:41:02;130.20;;;36.33;;
78148;SDS011;67396;42.664;23.382;2023-12-20T14:43:29;117.93;;;38.60;;
78148;SDS011;67396;42.664;23.382;2023-12-20T14:45:55;118.97;;;37.78;;
78148;SDS011;67396;42.664;23.382;2023-12-20T14:50:46;124.60;;;32.58;;
78148;SDS011;67396;42.664;23.382;2023-12-20T14:53:13;115.60;;;35.63;;
78148;SDS011;67396;42.664;23.382;2023-12-20T14:55:41;268.67;;;83.95;;
78148;SDS011;67396;42.664;23.382;2023-12-20T15:00:32;121.90;;;38.75;;
78148;SDS011;67396;42.664;23.382;2023-12-20T15:02:58;195.77;;;50.65;;
78148;SDS011;67396;42.664;23.382;2023-12-20T15:07:49;143.10;;;47.33;;
78148;SDS011;67396;42.664;23.382;2023-12-20T15:12:42;170.77;;;45.20;;
78148;SDS011;67396;42.664;23.382;2023-12-20T15:15:08;199.80;;;57.25;;
78148;SDS011;67396;42.664;23.382;2023-12-20T15:17:35;290.27;;;94.22;;
78148;SDS011;67396;42.664;23.382;2023-12-20T15:20:01;259.08;;;69.03;;
78148;SDS011;67396;42.664;23.382;2023-12-20T15:22:27;187.23;;;56.83;;
78148;SDS011;67396;42.664;23.382;2023-12-20T15:24:53;161.10;;;52.85;;
78148;SDS011;67396;42.664;23.382;2023-12-20T15:27:20;158.65;;;48.90;;
78148;SDS011;67396;42.664;23.382;2023-12-20T15:29:45;140.38;;;49.08;;
78148;SDS011;67396;42.664;23.382;2023-12-20T15:32:11;143.65;;;48.08;;
78148;SDS011;67396;42.664;23.382;2023-12-20T15:34:36;155.55;;;49.92;;
78148;SDS011;67396;42.664;23.382;2023-12-20T15:37:02;133.30;;;47.90;;
78148;SDS011;67396;42.664;23.382;2023-12-20T15:39:28;161.95;;;49.85;;
78148;SDS011;67396;42.664;23.382;2023-12-20T15:41:53;132.70;;;44.78;;
78148;SDS011;67396;42.664;23.382;2023-12-20T15:44:19;111.43;;;40.08;;
78148;SDS011;67396;42.664;23.382;2023-12-20T15:46:44;136.75;;;44.85;;
78148;SDS011;67396;42.664;23.382;2023-12-20T15:49:10;132.82;;;45.80;;
78148;SDS011;67396;42.664;23.382;2023-12-20T15:51:40;115.53;;;41.78;;
78148;SDS011;67396;42.664;23.382;2023-12-20T15:54:05;115.72;;;43.67;;
78148;SDS011;67396;42.664;23.382;2023-12-20T15:56:33;138.38;;;45.08;;
78148;SDS011;67396;42.664;23.382;2023-12-20T15:58:59;132.50;;;47.22;;
78148;SDS011;67396;42.664;23.382;2023-12-20T16:06:15;110.82;;;38.28;;
78148;SDS011;67396;42.664;23.382;2023-12-20T16:08:41;104.10;;;40.65;;
78148;SDS011;67396;42.664;23.382;2023-12-20T16:11:07;111.43;;;39.80;;
78148;SDS011;67396;42.664;23.382;2023-12-20T16:13:33;110.13;;;37.08;;
78148;SDS011;67396;42.664;23.382;2023-12-20T16:16:02;101.72;;;36.40;;
78148;SDS011;67396;42.664;23.382;2023-12-20T16:18:28;102.35;;;36.13;;
78148;SDS011;67396;42.664;23.382;2023-12-20T16:20:54;105.95;;;37.90;;
78148;SDS011;67396;42.664;23.382;2023-12-20T16:23:20;100.65;;;34.50;;
78148;SDS011;67396;42.664;23.382;2023-12-20T16:25:45;105.70;;;37.17;;
78148;SDS011;67396;42.664;23.382;2023-12-20T16:28:11;102.03;;;36.22;;
78148;SDS011;67396;42.664;23.382;2023-12-20T16:30:36;118.50;;;39.72;;
78148;SDS011;67396;42.664;23.382;2023-12-20T16:33:02;144.50;;;44.40;;
78148;SDS011;67396;42.664;23.382;2023-12-20T16:35:28;143.48;;;49.78;;
78148;SDS011;67396;42.664;23.382;2023-12-20T16:37:55;174.20;;;49.75;;
78148;SDS011;67396;42.664;23.382;2023-12-20T16:40:21;139.45;;;49.15;;
78148;SDS011;67396;42.664;23.382;2023-12-20T16:42:53;131.90;;;44.78;;
78148;SDS011;67396;42.664;23.382;2023-12-20T16:45:22;136.80;;;44.97;;
78148;SDS011;67396;42.664;23.382;2023-12-20T16:47:48;121.47;;;41.75;;
78148;SDS011;67396;42.664;23.382;2023-12-20T16:50:14;128.90;;;43.90;;
78148;SDS011;67396;42.664;23.382;2023-12-20T16:52:40;135.15;;;42.10;;
78148;SDS011;67396;42.664;23.382;2023-12-20T16:55:08;130.75;;;42.28;;
78148;SDS011;67396;42.664;23.382;2023-12-20T16:57:36;134.55;;;41.38;;
78148;SDS011;67396;42.664;23.382;2023-12-20T17:00:02;111.03;;;38.80;;
78148;SDS011;67396;42.664;23.382;2023-12-20T17:02:30;143.55;;;38.58;;
78148;SDS011;67396;42.664;23.382;2023-12-20T17:04:55;129.73;;;39.15;;